createdAt,value
2019-04-14T00:04:13.981Z,3.00
2019-04-14T00:07:02.012Z,2.90
2019-04-14T00:09:50.039Z,3.00
2019-04-14T00:12:38.467Z,3.00
2019-04-14T00:15:33.861Z,3.00
2019-04-14T00:18:16.462Z,3.00
2019-04-14T00:21:04.934Z,3.10
2019-04-14T00:23:54.463Z,3.00
2019-04-14T00:26:44.388Z,3.00
2019-04-14T00:29:32.974Z,2.90
2019-04-14T00:32:02.977Z,2.80
2019-04-14T00:38:37.152Z,2.50
2019-04-14T00:44:45.657Z,2.40
2019-04-14T00:47:51.718Z,2.30
2019-04-14T00:50:29.957Z,2.30
2019-04-14T00:53:18.504Z,2.30
2019-04-14T00:56:08.352Z,2.40
2019-04-14T00:58:58.268Z,2.40
2019-04-14T01:01:48.374Z,2.40
2019-04-14T01:04:38.226Z,2.40
2019-04-14T01:07:26.856Z,2.50
2019-04-14T01:10:15.025Z,2.50
2019-04-14T01:13:03.066Z,2.50
2019-04-14T01:15:58.666Z,2.60
2019-04-14T01:18:40.835Z,2.60
2019-04-14T01:21:28.849Z,2.60
2019-04-14T01:24:18.467Z,2.60
2019-04-14T01:27:08.028Z,2.70
2019-04-14T01:29:56.641Z,2.70
2019-04-14T01:32:37.502Z,2.70
2019-04-14T01:35:18.673Z,2.70
2019-04-14T01:37:59.445Z,2.70
2019-04-14T01:40:40.244Z,2.70
2019-04-14T01:43:21.355Z,2.80
2019-04-14T01:46:13.759Z,2.70
2019-04-14T01:48:45.377Z,2.70
2019-04-14T01:54:56.872Z,2.70
2019-04-14T01:57:48.233Z,2.70
2019-04-14T02:00:49.291Z,2.70
2019-04-14T02:03:32.295Z,2.80
2019-04-14T02:06:13.712Z,2.80
2019-04-14T02:08:54.785Z,2.80
2019-04-14T02:11:35.599Z,2.80
2019-04-14T02:14:16.853Z,2.70
2019-04-14T02:17:00.736Z,2.70
2019-04-14T02:19:41.588Z,2.70
2019-04-14T02:22:22.972Z,2.70
2019-04-14T02:25:03.876Z,2.60
2019-04-14T02:27:45.057Z,2.70
2019-04-14T02:30:33.976Z,2.70
2019-04-14T02:33:40.352Z,2.70
2019-04-14T02:36:21.697Z,2.70
2019-04-14T02:41:49.309Z,2.70
2019-04-14T02:44:33.626Z,2.70
2019-04-14T02:47:18.167Z,2.60
2019-04-14T02:49:50.801Z,2.70
2019-04-14T02:52:35.513Z,2.70
2019-04-14T02:55:30.016Z,2.70
2019-04-14T02:58:03.535Z,2.70
2019-04-14T03:00:41.436Z,2.60
2019-04-14T03:06:05.383Z,2.60
2019-04-14T03:09:16.345Z,2.60
2019-04-14T03:11:31.404Z,2.60
2019-04-14T03:14:17.400Z,2.60
2019-04-14T03:23:19.408Z,2.70
2019-04-14T03:26:00.887Z,2.60
2019-04-14T03:28:44.275Z,2.70
2019-04-14T03:32:02.507Z,2.70
2019-04-14T03:37:16.371Z,2.70
2019-04-14T03:42:28.870Z,2.70
2019-04-14T03:45:07.531Z,2.80
2019-04-14T03:48:15.054Z,2.90
2019-04-14T03:55:41.588Z,2.90
2019-04-14T03:58:15.937Z,2.90
2019-04-14T04:00:45.127Z,2.90
2019-04-14T04:03:34.884Z,2.90
2019-04-14T04:06:22.979Z,2.90
2019-04-14T04:09:11.038Z,2.90
2019-04-14T04:12:00.504Z,2.90
2019-04-14T04:14:49.028Z,2.80
2019-04-14T04:17:56.380Z,2.80
2019-04-14T04:21:03.479Z,2.80
2019-04-14T04:24:10.776Z,2.90
2019-04-14T04:27:20.043Z,2.90
2019-04-14T04:30:27.666Z,2.90
2019-04-14T04:33:19.871Z,2.90
2019-04-14T04:36:07.207Z,2.90
2019-04-14T04:39:08.205Z,2.90
2019-04-14T04:41:49.458Z,2.90
2019-04-14T04:44:31.333Z,2.90
2019-04-14T04:47:12.700Z,2.90
2019-04-14T04:49:53.522Z,2.90
2019-04-14T04:52:34.468Z,2.80
2019-04-14T04:55:15.603Z,2.90
2019-04-14T04:57:44.492Z,2.90
2019-04-14T05:00:33.057Z,2.90
2019-04-14T05:03:23.249Z,2.90
2019-04-14T05:06:31.244Z,2.90
2019-04-14T05:12:58.963Z,3.00
2019-04-14T05:15:51.068Z,3.10
2019-04-14T05:18:40.131Z,3.10
2019-04-14T05:21:28.213Z,3.20
2019-04-14T05:24:16.218Z,3.20
2019-04-14T05:27:04.220Z,3.30
2019-04-14T05:29:52.189Z,3.30
2019-04-14T05:32:21.624Z,3.40
2019-04-14T05:34:52.190Z,3.30
2019-04-14T05:37:42.117Z,3.40
2019-04-14T05:40:32.169Z,3.40
2019-04-14T05:43:30.198Z,3.50
2019-04-14T05:46:12.086Z,3.30
2019-04-14T05:49:02.094Z,3.30
2019-04-14T05:51:50.855Z,3.30
2019-04-14T05:54:40.340Z,3.40
2019-04-14T05:57:28.846Z,3.50
2019-04-14T06:03:27.762Z,3.80
2019-04-14T06:06:16.819Z,3.70
2019-04-14T06:09:06.524Z,3.60
2019-04-14T06:11:54.565Z,3.70
2019-04-14T06:14:42.547Z,3.60
2019-04-14T06:17:30.635Z,3.60
2019-04-14T06:20:18.970Z,3.70
2019-04-14T06:23:06.979Z,3.60
2019-04-14T06:25:36.833Z,3.60
2019-04-14T06:28:25.256Z,3.50
2019-04-14T06:31:32.315Z,3.60
2019-04-14T06:34:17.897Z,3.60
2019-04-14T06:36:56.989Z,3.70
2019-04-14T06:39:32.100Z,3.70
2019-04-14T06:42:01.094Z,3.80
2019-04-14T06:44:30.026Z,3.90
2019-04-14T06:46:59.015Z,4.00
2019-04-14T06:49:27.985Z,4.10
2019-04-14T06:51:56.743Z,4.20
2019-04-14T06:54:25.592Z,4.30
2019-04-14T06:56:54.470Z,4.40
2019-04-14T06:59:23.351Z,4.40
2019-04-14T07:01:52.117Z,4.40
2019-04-14T07:04:20.985Z,4.40
2019-04-14T07:06:51.405Z,4.50
2019-04-14T07:09:20.735Z,4.80
2019-04-14T07:11:49.677Z,5.10
2019-04-14T07:14:18.408Z,5.40
2019-04-14T07:16:47.895Z,5.70
2019-04-14T07:19:16.776Z,6.00
2019-04-14T07:21:45.573Z,6.80
2019-04-14T07:24:14.347Z,6.80
2019-04-14T07:26:43.171Z,7.20
2019-04-14T07:29:14.641Z,7.40
2019-04-14T07:32:04.877Z,7.20
2019-04-14T07:35:05.122Z,7.50
2019-04-14T07:37:56.234Z,8.00
2019-04-14T07:40:54.029Z,8.30
2019-04-14T07:43:36.789Z,8.00
2019-04-14T07:46:10.428Z,7.50
2019-04-14T07:48:48.762Z,7.80
2019-04-14T07:51:35.718Z,8.20
2019-04-14T07:54:09.555Z,8.80
2019-04-14T07:57:06.525Z,8.80
2019-04-14T07:59:50.482Z,8.50
2019-04-14T08:02:27.448Z,9.20
2019-04-14T08:05:08.479Z,11.00
2019-04-14T08:07:37.229Z,12.50
2019-04-14T08:10:07.190Z,12.90
2019-04-14T08:12:35.976Z,10.90
2019-04-14T08:15:05.924Z,11.00
2019-04-14T08:17:34.956Z,10.10
2019-04-14T08:20:04.952Z,11.00
2019-04-14T08:22:33.988Z,12.10
2019-04-14T08:25:02.863Z,12.80
2019-04-14T08:27:32.188Z,12.50
2019-04-14T08:30:01.079Z,12.20
2019-04-14T08:32:30.013Z,11.80
2019-04-14T08:34:58.884Z,12.40
2019-04-14T08:37:27.797Z,11.90
2019-04-14T08:39:56.876Z,11.40
2019-04-14T08:42:43.942Z,11.80
2019-04-14T08:45:22.492Z,11.40
2019-04-14T08:47:57.190Z,11.30
2019-04-14T08:50:39.559Z,10.60
2019-04-14T08:53:15.681Z,10.00
2019-04-14T08:56:04.051Z,10.40
2019-04-14T08:58:48.941Z,10.40
2019-04-14T09:01:40.301Z,10.60
2019-04-14T09:04:22.953Z,10.50
2019-04-14T09:07:11.197Z,10.80
2019-04-14T09:09:42.829Z,10.70
2019-04-14T09:12:16.298Z,10.90
2019-04-14T09:14:56.150Z,10.80
2019-04-14T09:17:17.220Z,10.50
2019-04-14T09:19:47.563Z,10.40
2019-04-14T09:22:16.863Z,10.90
2019-04-14T09:24:46.500Z,11.10
2019-04-14T09:27:15.854Z,10.60
2019-04-14T09:29:45.090Z,10.60
2019-04-14T09:32:14.788Z,10.60
2019-04-14T09:34:43.789Z,10.20
2019-04-14T09:37:13.018Z,10.80
2019-04-14T09:39:41.754Z,11.40
2019-04-14T09:42:10.540Z,11.80
2019-04-14T09:44:40.115Z,12.30
2019-04-14T09:47:09.394Z,13.00
2019-04-14T09:49:38.772Z,12.30
2019-04-14T09:52:08.274Z,12.20
2019-04-14T09:54:37.514Z,12.50
2019-04-14T09:57:06.676Z,12.90
2019-04-14T09:59:35.481Z,12.90
2019-04-14T10:02:06.904Z,13.10
2019-04-14T10:04:35.780Z,12.60
2019-04-14T10:07:05.025Z,13.00
2019-04-14T10:09:34.029Z,13.50
2019-04-14T10:12:02.808Z,13.30
2019-04-14T10:14:31.892Z,13.20
2019-04-14T10:17:01.438Z,13.30
2019-04-14T10:19:31.612Z,13.60
2019-04-14T10:22:00.695Z,14.10
2019-04-14T10:24:29.787Z,14.20
2019-04-14T10:26:59.581Z,14.00
2019-04-14T10:29:28.708Z,13.30
2019-04-14T10:31:57.498Z,13.20
2019-04-14T10:34:26.272Z,13.20
2019-04-14T10:36:55.027Z,13.80
2019-04-14T10:39:23.861Z,13.80
2019-04-14T10:41:52.608Z,13.50
2019-04-14T10:44:24.057Z,14.10
2019-04-14T10:46:52.825Z,14.40
2019-04-14T10:49:22.128Z,13.50
2019-04-14T10:51:51.227Z,13.50
2019-04-14T10:54:20.571Z,14.00
2019-04-14T10:56:50.909Z,14.40
2019-04-14T10:59:20.116Z,14.50
2019-04-14T11:01:49.277Z,13.90
2019-04-14T11:04:18.296Z,13.60
2019-04-14T11:07:08.514Z,13.00
2019-04-14T11:09:37.830Z,12.80
2019-04-14T11:12:07.400Z,12.80
2019-04-14T11:14:36.489Z,12.70
2019-04-14T11:17:05.408Z,12.50
2019-04-14T11:19:34.577Z,12.80
2019-04-14T11:22:03.339Z,12.90
2019-04-14T11:24:32.312Z,13.40
2019-04-14T11:27:01.288Z,13.30
2019-04-14T11:29:30.564Z,13.80
2019-04-14T11:32:15.757Z,13.90
2019-04-14T11:34:50.538Z,13.70
2019-04-14T11:37:37.173Z,13.60
2019-04-14T11:40:08.566Z,13.10
2019-04-14T11:42:37.534Z,12.70
2019-04-14T11:45:06.521Z,12.50
2019-04-14T11:47:35.497Z,13.10
2019-04-14T11:50:04.941Z,13.40
2019-04-14T11:52:35.742Z,13.20
2019-04-14T11:55:05.234Z,12.40
2019-04-14T11:57:34.298Z,12.30
2019-04-14T12:00:14.864Z,12.10
2019-04-14T12:03:08.960Z,12.10
2019-04-14T12:06:02.754Z,12.10
2019-04-14T12:08:45.719Z,11.90
2019-04-14T12:11:14.796Z,11.90
2019-04-14T12:13:43.952Z,11.70
2019-04-14T12:16:13.083Z,11.60
2019-04-14T12:18:42.140Z,11.60
2019-04-14T12:21:10.967Z,11.90
2019-04-14T12:23:43.700Z,11.90
2019-04-14T12:26:13.240Z,12.20
2019-04-14T12:28:43.226Z,12.00
2019-04-14T12:31:13.361Z,12.00
2019-04-14T12:33:43.958Z,12.00
2019-04-14T12:36:14.666Z,11.80
2019-04-14T12:38:43.917Z,11.90
2019-04-14T12:41:17.956Z,12.00
2019-04-14T12:43:56.580Z,11.90
2019-04-14T12:46:56.798Z,12.10
2019-04-14T12:49:30.214Z,12.10
2019-04-14T12:52:21.442Z,12.10
2019-04-14T12:54:49.617Z,12.10
2019-04-14T12:57:25.085Z,12.10
2019-04-14T12:59:54.492Z,12.00
2019-04-14T13:02:30.095Z,11.90
2019-04-14T13:04:58.913Z,11.80
2019-04-14T13:07:27.833Z,11.80
2019-04-14T13:09:56.765Z,11.50
2019-04-14T13:12:25.596Z,11.60
2019-04-14T13:14:54.725Z,11.60
2019-04-14T13:17:23.777Z,11.50
2019-04-14T13:19:52.902Z,11.40
2019-04-14T13:22:33.224Z,11.30
2019-04-14T13:24:52.783Z,11.30
2019-04-14T13:27:23.248Z,11.40
2019-04-14T13:29:52.694Z,11.40
2019-04-14T13:32:40.703Z,11.40
2019-04-14T13:35:21.944Z,11.50
2019-04-14T13:38:02.754Z,11.40
2019-04-14T13:40:43.247Z,11.20
2019-04-14T13:43:23.809Z,11.20
2019-04-14T13:46:04.181Z,11.30
2019-04-14T13:48:44.775Z,11.60
2019-04-14T13:51:25.782Z,11.40
2019-04-14T13:54:06.355Z,11.60
2019-04-14T13:56:47.280Z,11.80
2019-04-14T13:59:28.265Z,11.90
2019-04-14T14:02:09.857Z,11.70
2019-04-14T14:04:52.247Z,11.60
2019-04-14T14:07:33.033Z,11.40
2019-04-14T14:10:14.259Z,11.60
2019-04-14T14:12:59.247Z,11.90
2019-04-14T14:15:47.347Z,11.90
2019-04-14T14:18:54.727Z,11.60
2019-04-14T14:22:02.237Z,11.30
2019-04-14T14:28:22.576Z,11.40
2019-04-14T14:31:10.828Z,11.40
2019-04-14T14:33:52.055Z,11.40
2019-04-14T14:36:32.515Z,11.30
2019-04-14T14:39:14.972Z,11.10
2019-04-14T14:41:55.883Z,10.90
2019-04-14T14:50:45.229Z,10.90
2019-04-14T14:53:25.909Z,11.00
2019-04-14T14:56:06.792Z,11.10
2019-04-14T14:58:48.005Z,10.90
2019-04-14T15:01:29.042Z,10.80
2019-04-14T15:04:09.766Z,10.70
2019-04-14T15:06:50.540Z,10.80
2019-04-14T15:09:31.311Z,10.90
2019-04-14T15:12:12.248Z,10.80
2019-04-14T15:14:53.148Z,10.80
2019-04-14T15:17:33.530Z,10.70
2019-04-14T15:20:14.575Z,10.60
2019-04-14T15:22:55.512Z,10.60
2019-04-14T15:25:36.553Z,10.60
2019-04-14T15:28:17.496Z,10.50
2019-04-14T15:30:58.252Z,10.30
2019-04-14T15:33:39.371Z,10.30
2019-04-14T15:36:20.388Z,10.30
2019-04-14T15:39:01.252Z,10.20
2019-04-14T15:41:42.515Z,10.20
2019-04-14T15:44:22.807Z,10.20
2019-04-14T15:47:03.547Z,10.20
2019-04-14T15:49:44.448Z,10.00
2019-04-14T15:52:25.672Z,10.00
2019-04-14T15:55:06.323Z,9.90
2019-04-14T16:01:02.563Z,9.90
2019-04-14T16:03:51.152Z,9.80
2019-04-14T16:06:50.850Z,9.80
2019-04-14T16:09:44.714Z,9.80
2019-04-14T16:15:30.495Z,9.80
2019-04-14T16:18:30.828Z,9.80
2019-04-14T16:21:11.959Z,9.90
2019-04-14T16:23:52.774Z,9.90
2019-04-14T16:29:56.570Z,9.80
2019-04-14T16:32:56.635Z,9.60
2019-04-14T16:35:37.231Z,9.70
2019-04-14T16:38:17.607Z,9.60
2019-04-14T16:40:58.263Z,9.50
2019-04-14T16:43:39.330Z,9.30
2019-04-14T16:46:19.902Z,9.20
2019-04-14T16:49:00.631Z,9.20
2019-04-14T16:51:46.227Z,9.10
2019-04-14T16:54:46.429Z,9.10
2019-04-14T16:57:46.483Z,9.10
2019-04-14T17:00:31.629Z,8.90
2019-04-14T17:03:13.095Z,8.80
2019-04-14T17:05:53.760Z,8.70
2019-04-14T17:08:34.449Z,8.60
2019-04-14T17:11:15.209Z,8.60
2019-04-14T17:14:01.516Z,8.40
2019-04-14T17:17:01.528Z,8.50
2019-04-14T17:20:03.829Z,8.40
2019-04-14T17:22:55.126Z,8.30
2019-04-14T17:25:41.479Z,8.00
2019-04-14T17:28:27.497Z,8.00
2019-04-14T17:31:26.957Z,8.00
2019-04-14T17:34:22.752Z,7.90
2019-04-14T17:37:11.883Z,7.80
2019-04-14T17:40:00.456Z,7.70
2019-04-14T17:42:46.623Z,7.70
2019-04-14T17:45:46.163Z,7.60
2019-04-14T17:48:45.571Z,7.60
2019-04-14T17:51:33.291Z,7.40
2019-04-14T17:54:33.305Z,7.40
2019-04-14T17:57:32.991Z,7.30
2019-04-14T18:00:18.611Z,7.30
2019-04-14T18:03:18.544Z,7.20
2019-04-14T18:06:04.751Z,7.10
2019-04-14T18:09:05.861Z,7.10
2019-04-14T18:11:56.003Z,7.00
2019-04-14T18:14:55.635Z,6.90
2019-04-14T18:17:58.004Z,6.90
2019-04-14T18:20:42.396Z,6.90
2019-04-14T18:23:22.760Z,6.90
2019-04-14T18:26:03.040Z,6.80
2019-04-14T18:29:02.872Z,6.80
2019-04-14T18:32:08.657Z,6.70
2019-04-14T18:35:10.964Z,6.60
2019-04-14T18:38:10.975Z,6.60
2019-04-14T18:40:58.787Z,6.50
2019-04-14T18:44:05.847Z,6.40
2019-04-14T18:47:12.894Z,6.40
2019-04-14T18:50:20.372Z,6.30
2019-04-14T18:53:12.559Z,6.30
2019-04-14T18:56:15.071Z,6.40
2019-04-14T18:59:22.143Z,6.30
2019-04-14T19:02:12.244Z,6.30
2019-04-14T19:05:00.254Z,6.40
2019-04-14T19:07:48.215Z,6.30
2019-04-14T19:10:36.211Z,6.30
2019-04-14T19:22:26.159Z,6.10
2019-04-14T19:25:14.238Z,6.10
2019-04-14T19:28:02.212Z,6.00
2019-04-14T19:30:50.632Z,6.00
2019-04-14T19:33:38.632Z,6.00
2019-04-14T19:36:26.720Z,6.00
2019-04-14T19:39:14.700Z,5.90
2019-04-14T19:42:02.716Z,5.90
2019-04-14T19:44:50.919Z,6.00
2019-04-14T19:47:38.958Z,6.00
2019-04-14T19:50:26.920Z,6.00
2019-04-14T19:53:15.088Z,6.00
2019-04-14T19:56:03.108Z,6.00
2019-04-14T19:58:51.123Z,5.90
2019-04-14T20:01:39.130Z,5.90
2019-04-14T20:04:27.191Z,5.80
2019-04-14T20:07:15.327Z,5.80
2019-04-14T20:10:03.411Z,5.80
2019-04-14T20:12:51.583Z,5.80
2019-04-14T20:15:58.644Z,5.80
2019-04-14T20:19:10.536Z,5.70
2019-04-14T20:22:14.457Z,5.70
2019-04-14T20:25:33.154Z,5.70
2019-04-14T20:28:30.625Z,5.70
2019-04-14T20:31:37.897Z,5.70
2019-04-14T20:34:19.300Z,5.70
2019-04-14T20:36:59.833Z,5.60
2019-04-14T20:42:52.912Z,5.60
2019-04-14T20:45:33.724Z,5.60
2019-04-14T20:48:14.601Z,5.60
2019-04-14T20:50:55.412Z,5.60
2019-04-14T20:53:36.140Z,5.60
2019-04-14T20:56:16.909Z,5.60
2019-04-14T20:58:57.624Z,5.70
2019-04-14T21:01:41.842Z,5.80
2019-04-14T21:07:53.273Z,5.80
2019-04-14T21:10:41.943Z,5.90
2019-04-14T21:13:41.568Z,5.90
2019-04-14T21:16:19.714Z,5.90
2019-04-14T21:19:12.384Z,5.80
2019-04-14T21:22:19.509Z,5.90
2019-04-14T21:25:26.676Z,5.90
2019-04-14T21:28:21.528Z,5.90
2019-04-14T21:31:28.888Z,5.90
2019-04-14T21:34:13.005Z,5.90
2019-04-14T21:37:13.342Z,5.90
2019-04-14T21:40:12.898Z,5.90
2019-04-14T21:42:53.574Z,6.00
2019-04-14T21:45:34.309Z,6.00
2019-04-14T21:48:15.201Z,6.00
2019-04-14T21:50:56.265Z,6.00
2019-04-14T21:53:37.085Z,5.90
2019-04-14T21:56:13.280Z,6.00
2019-04-14T21:59:14.752Z,5.90
2019-04-14T22:02:21.868Z,6.00
2019-04-14T22:08:25.040Z,6.00
2019-04-14T22:11:00.062Z,6.00
2019-04-14T22:13:28.868Z,5.90
2019-04-14T22:16:16.856Z,6.00
2019-04-14T22:19:04.852Z,5.90
2019-04-14T22:21:52.847Z,5.90
2019-04-14T22:24:40.836Z,5.90
2019-04-14T22:27:28.871Z,5.90
2019-04-14T22:30:16.955Z,5.90
2019-04-14T22:33:05.092Z,5.90
2019-04-14T22:35:46.189Z,5.90
2019-04-14T22:38:26.857Z,5.90
2019-04-14T22:41:07.632Z,5.90
2019-04-14T22:43:48.616Z,5.90
2019-04-14T22:46:28.939Z,5.90
2019-04-14T22:49:09.659Z,5.90
2019-04-14T22:51:50.389Z,5.80
2019-04-14T22:54:31.315Z,5.80
2019-04-14T22:57:12.088Z,5.80
2019-04-14T22:59:53.213Z,6.00
2019-04-14T23:02:52.947Z,5.90
2019-04-14T23:05:52.579Z,5.90
2019-04-14T23:08:52.490Z,5.90
2019-04-14T23:11:52.463Z,5.90
2019-04-14T23:14:40.000Z,5.90
2019-04-14T23:17:40.144Z,5.80
2019-04-14T23:20:26.246Z,5.70
2019-04-14T23:23:25.670Z,5.60
2019-04-14T23:26:06.736Z,5.50
2019-04-14T23:28:47.639Z,5.50
2019-04-14T23:31:28.554Z,5.50
2019-04-14T23:34:09.013Z,5.40
2019-04-14T23:36:49.693Z,5.30
2019-04-14T23:39:30.324Z,5.30
2019-04-14T23:42:11.059Z,5.20
2019-04-14T23:44:51.669Z,5.20
2019-04-14T23:47:32.780Z,5.10
2019-04-14T23:50:13.580Z,5.00
2019-04-14T23:52:54.386Z,4.90
2019-04-14T23:55:35.315Z,4.90
2019-04-14T23:58:16.324Z,4.80
